Burbank, South Dakota
Current Conditions -  °F | °C
As of 4:55 PM on Sunday 21 Dec 2014 (Local Time) from KYKN Reporting Station
Overcast Overcast  
Wind Chill: 27°   Ceiling: 800
Heat Index: 37°   Visibility: 5mi
Dew Point: 36°   Wind: 21mph
Humidity: 93%   Direction: 180°S
Pressure: 29.58"   Gusts: 29mph
Location:  42.75°N, 96.83°W
Report Text: KYKN 212255Z AUTO 18018G25KT 5SM OVC008 03/02 A2958 RMK AO1
Loading
Personal Weather Stations






























Interactive Weather Map New forecast layout! Learn more

10-Day Weather Forecast

Advertisements
Track Severe Weather on mobile